Time;durP1;ratioP1;P1;durP2;ratioP2;P2;SDS_P1;SDS_P2;PMS_P1;PMS_P2;Temp;Humidity;BMP_temperature;BMP_pressure;BME280_temperature;BME280_humidity;BME280_pressure;Samples;Min_cycle;Max_cycle;Signal;HPM_P1;HPM_P2
2022/12/02 00:00:54;;;;;;;;;;;9.60;75.70;;;;;;5052464;28;19959;-83
2022/12/02 00:03:21;;;;;;;;;;;9.60;75.70;;;;;;5058577;28;20327;-82
2022/12/02 00:05:48;;;;;;;;;;;9.60;75.70;;;;;;5073397;28;19916;-83
2022/12/02 00:08:21;;;;;;;;;;;9.60;75.70;;;;;;5069822;28;19912;-84
2022/12/02 00:10:48;;;;;;;;;;;9.60;75.70;;;;;;5067839;28;19916;-83
2022/12/02 00:13:22;;;;;;;;;;;9.60;75.80;;;;;;5059252;28;19923;-84
2022/12/02 00:15:54;;;;;;;;;;;9.60;75.70;;;;;;5082177;28;19920;-87
2022/12/02 00:18:20;;;;;;;;;;;9.60;75.80;;;;;;5062692;28;19936;-83
2022/12/02 00:20:45;;;;;;;;;;;9.60;75.70;;;;;;5057780;28;19927;-83
2022/12/02 00:23:11;;;;;;;;;;;9.50;75.70;;;;;;5088912;28;19992;-85
2022/12/02 00:25:37;;;;;;;;;;;9.50;75.70;;;;;;5059712;28;19931;-84
2022/12/02 00:28:02;;;;;;;;;;;9.50;75.70;;;;;;5066426;28;19921;-86
2022/12/02 00:30:29;;;;;;;;;;;9.50;75.60;;;;;;5049581;28;20428;-84
2022/12/02 00:32:54;;;;;;;;;;;9.50;75.70;;;;;;5050903;28;19999;-87
2022/12/02 00:35:22;;;;;;;;;;;9.50;75.60;;;;;;5065843;28;20360;-85
2022/12/02 00:37:48;;;;;;;;;;;9.50;75.70;;;;;;5063964;28;19917;-85
2022/12/02 00:40:13;;;;;;;;;;;9.50;75.70;;;;;;5034722;28;19923;-84
2022/12/02 00:42:40;;;;;;;;;;;9.50;75.70;;;;;;5068871;28;20011;-83
2022/12/02 00:47:52;;;;;;;;;;;9.50;75.70;;;;;;5069968;28;19921;-83
2022/12/02 00:50:18;;;;;;;;;;;9.50;75.60;;;;;;5068547;28;19972;-88
2022/12/02 00:52:43;;;;;;;;;;;9.50;75.70;;;;;;5069025;28;19912;-83
2022/12/02 00:55:09;;;;;;;;;;;9.40;75.60;;;;;;5067441;28;19920;-83
2022/12/02 00:57:34;;;;;;;;;;;9.40;75.60;;;;;;5063042;28;19920;-86
2022/12/02 01:00:05;;;;;;;;;;;9.40;75.60;;;;;;5065249;28;19974;-82
2022/12/02 01:02:30;;;;;;;;;;;9.40;75.60;;;;;;5071092;28;19916;-83
2022/12/02 01:04:56;;;;;;;;;;;9.40;75.60;;;;;;5055383;28;19920;-83
2022/12/02 01:07:22;;;;;;;;;;;9.40;75.60;;;;;;5067008;28;19916;-84
2022/12/02 01:09:47;;;;;;;;;;;9.40;75.60;;;;;;5055106;28;19916;-84
2022/12/02 01:12:13;;;;;;;;;;;9.40;75.60;;;;;;5068341;28;20273;-85
2022/12/02 01:14:39;;;;;;;;;;;9.30;75.60;;;;;;5070195;28;19924;-85
2022/12/02 01:17:04;;;;;;;;;;;9.40;75.60;;;;;;5063377;28;19931;-83
2022/12/02 01:19:30;;;;;;;;;;;9.30;75.50;;;;;;5075426;28;19916;-84
2022/12/02 01:21:56;;;;;;;;;;;9.40;76.30;;;;;;5053559;28;19916;-83
2022/12/02 01:24:23;;;;;;;;;;;9.30;75.60;;;;;;5057199;28;19912;-83
2022/12/02 01:26:49;;;;;;;;;;;9.30;75.60;;;;;;5074798;28;19956;-84
2022/12/02 01:29:14;;;;;;;;;;;9.30;75.60;;;;;;5068368;28;20273;-83
2022/12/02 01:31:40;;;;;;;;;;;9.30;75.60;;;;;;5072618;28;19924;-85
2022/12/02 01:34:05;;;;;;;;;;;9.30;75.60;;;;;;5059207;28;20316;-82
2022/12/02 01:36:31;;;;;;;;;;;9.30;75.60;;;;;;5056664;28;19964;-83
2022/12/02 01:38:57;;;;;;;;;;;9.30;75.60;;;;;;5057731;28;19917;-82
2022/12/02 01:41:22;;;;;;;;;;;9.30;75.60;;;;;;5073573;28;19924;-88
2022/12/02 01:43:48;;;;;;;;;;;9.20;75.50;;;;;;5056265;28;19965;-83
2022/12/02 01:46:14;;;;;;;;;;;9.30;75.60;;;;;;5072739;28;19916;-83
2022/12/02 01:48:40;;;;;;;;;;;9.20;75.50;;;;;;5060048;28;19930;-83
2022/12/02 01:51:06;;;;;;;;;;;9.20;75.50;;;;;;5058845;28;19917;-82
2022/12/02 01:53:31;;;;;;;;;;;9.20;75.60;;;;;;5066693;28;19924;-84
2022/12/02 01:55:58;;;;;;;;;;;9.20;75.60;;;;;;5062461;28;19916;-84
2022/12/02 01:58:26;;;;;;;;;;;9.20;75.60;;;;;;5068873;28;20354;-84
2022/12/02 02:00:55;;;;;;;;;;;9.20;75.60;;;;;;5084054;28;19919;-84
2022/12/02 02:03:21;;;;;;;;;;;9.20;75.60;;;;;;5061806;28;19994;-84
2022/12/02 02:05:47;;;;;;;;;;;9.20;75.60;;;;;;5075302;28;20333;-85
2022/12/02 02:08:13;;;;;;;;;;;9.20;75.60;;;;;;5085284;28;19919;-83
2022/12/02 02:10:40;;;;;;;;;;;9.20;75.60;;;;;;5062730;28;19964;-85
2022/12/02 02:13:07;;;;;;;;;;;9.20;75.60;;;;;;5070289;28;20404;-87
2022/12/02 02:15:33;;;;;;;;;;;9.20;75.60;;;;;;5058233;28;19969;-84
2022/12/02 02:17:59;;;;;;;;;;;9.10;75.50;;;;;;5070763;28;20311;-84
2022/12/02 02:20:26;;;;;;;;;;;9.10;75.60;;;;;;5058600;28;19916;-85
2022/12/02 02:23:01;;;;;;;;;;;9.10;75.60;;;;;;5045463;28;20376;-83
2022/12/02 02:25:29;;;;;;;;;;;9.10;75.60;;;;;;5047949;28;19917;-83
2022/12/02 02:27:57;;;;;;;;;;;9.10;75.60;;;;;;5053834;28;19912;-83
2022/12/02 02:30:25;;;;;;;;;;;9.10;75.50;;;;;;5087444;28;19912;-82
2022/12/02 02:32:51;;;;;;;;;;;9.10;75.50;;;;;;5086953;28;20016;-87
2022/12/02 02:35:18;;;;;;;;;;;9.10;75.50;;;;;;5086005;28;20003;-84
2022/12/02 02:37:44;;;;;;;;;;;9.10;75.50;;;;;;5066220;28;19919;-85
2022/12/02 02:40:10;;;;;;;;;;;9.00;75.50;;;;;;5070706;28;19970;-83
2022/12/02 02:42:37;;;;;;;;;;;9.00;75.50;;;;;;5071208;28;19916;-84
2022/12/02 02:45:03;;;;;;;;;;;9.00;75.50;;;;;;5069376;28;19976;-83
2022/12/02 02:47:29;;;;;;;;;;;9.00;75.50;;;;;;5060663;28;19926;-84
2022/12/02 02:49:55;;;;;;;;;;;9.00;75.50;;;;;;5055794;28;19920;-85
2022/12/02 02:52:21;;;;;;;;;;;9.00;75.50;;;;;;5066776;28;19959;-84
2022/12/02 02:54:47;;;;;;;;;;;9.00;75.50;;;;;;5062203;28;19947;-87
2022/12/02 02:57:13;;;;;;;;;;;9.00;75.50;;;;;;5082736;28;20416;-84
2022/12/02 02:59:40;;;;;;;;;;;9.00;75.50;;;;;;5067732;28;19959;-84
2022/12/02 03:02:07;;;;;;;;;;;9.00;75.50;;;;;;5074499;28;19912;-86
2022/12/02 03:04:33;;;;;;;;;;;9.00;75.50;;;;;;5078512;28;19919;-83
2022/12/02 03:06:59;;;;;;;;;;;9.00;75.50;;;;;;5062894;28;19916;-87
2022/12/02 03:09:25;;;;;;;;;;;9.00;75.50;;;;;;5068398;28;19919;-83
2022/12/02 03:11:52;;;;;;;;;;;9.00;75.50;;;;;;5069741;28;19920;-84
2022/12/02 03:14:19;;;;;;;;;;;8.90;75.40;;;;;;5050890;28;19970;-83
2022/12/02 03:16:45;;;;;;;;;;;8.90;75.50;;;;;;5075437;28;20376;-84
2022/12/02 03:19:11;;;;;;;;;;;8.90;75.40;;;;;;5058169;28;19930;-83
2022/12/02 03:21:37;;;;;;;;;;;8.90;75.40;;;;;;5070455;28;19912;-85
2022/12/02 03:24:03;;;;;;;;;;;8.90;75.40;;;;;;5068982;28;19916;-84
2022/12/02 03:26:29;;;;;;;;;;;8.90;75.40;;;;;;5075538;28;19926;-86
2022/12/02 03:28:55;;;;;;;;;;;8.90;75.40;;;;;;5074714;28;19921;-83
2022/12/02 03:31:21;;;;;;;;;;;8.90;75.40;;;;;;5065139;28;19916;-83
2022/12/02 03:33:47;;;;;;;;;;;8.90;75.40;;;;;;5053225;28;20414;-83
2022/12/02 03:36:13;;;;;;;;;;;8.90;75.40;;;;;;5061890;28;19924;-84
2022/12/02 03:38:39;;;;;;;;;;;8.90;75.40;;;;;;5068034;28;19943;-84
2022/12/02 03:41:05;;;;;;;;;;;8.80;75.40;;;;;;5066394;28;19920;-84
2022/12/02 03:43:31;;;;;;;;;;;8.80;75.40;;;;;;5057825;28;19920;-86
2022/12/02 03:45:57;;;;;;;;;;;8.80;75.40;;;;;;5067736;28;19958;-82
2022/12/02 03:48:24;;;;;;;;;;;8.80;75.40;;;;;;5070768;28;19924;-83
2022/12/02 03:50:50;;;;;;;;;;;8.80;75.40;;;;;;5059038;28;19916;-84
2022/12/02 03:53:16;;;;;;;;;;;8.80;75.40;;;;;;5060646;28;19912;-85
2022/12/02 03:55:42;;;;;;;;;;;8.80;75.30;;;;;;5067398;28;19957;-83
2022/12/02 03:58:08;;;;;;;;;;;8.80;75.40;;;;;;5053997;28;19923;-85
2022/12/02 04:00:34;;;;;;;;;;;8.80;75.40;;;;;;5065991;28;19950;-84
2022/12/02 04:03:00;;;;;;;;;;;8.80;75.40;;;;;;5055224;28;19919;-87
2022/12/02 04:05:25;;;;;;;;;;;8.80;75.40;;;;;;5083711;28;19912;-83
2022/12/02 04:07:51;;;;;;;;;;;8.80;75.40;;;;;;5070043;28;19924;-87
2022/12/02 04:10:17;;;;;;;;;;;8.80;75.40;;;;;;5070084;28;20003;-86
2022/12/02 04:12:42;;;;;;;;;;;8.70;75.30;;;;;;5055260;28;19920;-83
2022/12/02 04:15:10;;;;;;;;;;;8.70;75.30;;;;;;5065079;28;19916;-84
2022/12/02 04:17:36;;;;;;;;;;;8.70;75.30;;;;;;5069429;28;19916;-84
2022/12/02 04:20:04;;;;;;;;;;;8.70;75.30;;;;;;5056881;28;20709;-83
2022/12/02 04:22:29;;;;;;;;;;;8.70;75.30;;;;;;5049189;28;19916;-85
2022/12/02 04:24:57;;;;;;;;;;;8.70;75.30;;;;;;5043735;28;19923;-82
2022/12/02 04:27:23;;;;;;;;;;;8.70;75.30;;;;;;5067813;28;19916;-83
2022/12/02 04:29:49;;;;;;;;;;;8.70;75.30;;;;;;5063063;28;19912;-86
2022/12/02 04:32:15;;;;;;;;;;;8.70;75.30;;;;;;5047774;28;19916;-83
2022/12/02 04:34:40;;;;;;;;;;;8.70;75.30;;;;;;5065268;28;19920;-85
2022/12/02 04:37:06;;;;;;;;;;;8.70;75.30;;;;;;5054164;28;20384;-82
2022/12/02 04:39:32;;;;;;;;;;;8.70;75.30;;;;;;5054912;28;20356;-84
2022/12/02 04:41:57;;;;;;;;;;;8.60;75.30;;;;;;5076206;28;19935;-84
2022/12/02 04:44:23;;;;;;;;;;;8.60;75.30;;;;;;5074383;28;19944;-83
2022/12/02 04:46:51;;;;;;;;;;;8.60;75.30;;;;;;5058746;28;20315;-83
2022/12/02 04:49:17;;;;;;;;;;;8.60;75.30;;;;;;5058891;28;19924;-82
2022/12/02 04:51:43;;;;;;;;;;;8.60;75.30;;;;;;5076727;28;19962;-83
2022/12/02 04:54:08;;;;;;;;;;;8.60;75.30;;;;;;5060348;28;20376;-84
2022/12/02 04:56:34;;;;;;;;;;;8.60;75.30;;;;;;5071919;28;19924;-89
2022/12/02 04:58:59;;;;;;;;;;;8.60;75.30;;;;;;5077427;28;20184;-83
2022/12/02 05:01:25;;;;;;;;;;;8.60;75.30;;;;;;5077976;28;19912;-83
2022/12/02 05:03:53;;;;;;;;;;;8.60;75.30;;;;;;5060091;28;20019;-84
2022/12/02 05:06:22;;;;;;;;;;;8.60;75.30;;;;;;5053479;28;19917;-83
2022/12/02 05:08:47;;;;;;;;;;;8.60;75.30;;;;;;5062124;28;19912;-82
2022/12/02 05:11:13;;;;;;;;;;;8.60;75.30;;;;;;5062491;28;19912;-84
2022/12/02 05:13:39;;;;;;;;;;;8.50;75.20;;;;;;5060576;28;19911;-88
2022/12/02 05:16:04;;;;;;;;;;;8.60;75.30;;;;;;5062824;28;19924;-83
2022/12/02 05:18:30;;;;;;;;;;;8.50;75.20;;;;;;5039781;28;19970;-84
2022/12/02 05:20:56;;;;;;;;;;;8.50;75.30;;;;;;5073006;28;20288;-82
2022/12/02 05:23:21;;;;;;;;;;;8.50;75.20;;;;;;5074876;28;19916;-83
2022/12/02 05:25:48;;;;;;;;;;;8.50;75.20;;;;;;5092949;28;19917;-82
2022/12/02 05:28:14;;;;;;;;;;;8.50;75.30;;;;;;5079012;28;20000;-83
2022/12/02 05:30:39;;;;;;;;;;;8.50;75.20;;;;;;5060360;28;20008;-83
2022/12/02 05:33:05;;;;;;;;;;;8.50;75.30;;;;;;5061141;28;19916;-83
2022/12/02 05:35:30;;;;;;;;;;;8.50;75.30;;;;;;5074417;28;19925;-83
2022/12/02 05:37:56;;;;;;;;;;;8.50;75.30;;;;;;5058151;28;19925;-83
2022/12/02 05:40:22;;;;;;;;;;;8.50;75.30;;;;;;5063463;28;19999;-82
2022/12/02 05:42:51;;;;;;;;;;;8.50;75.20;;;;;;5057515;28;19994;-83
2022/12/02 05:45:20;;;;;;;;;;;8.50;75.20;;;;;;5077561;28;19962;-82
2022/12/02 05:47:51;;;;;;;;;;;8.50;75.30;;;;;;5061109;28;19935;-84
2022/12/02 05:50:17;;;;;;;;;;;8.50;75.30;;;;;;5073331;28;20058;-83
2022/12/02 05:52:50;;;;;;;;;;;8.40;75.20;;;;;;5087791;28;19920;-83
2022/12/02 05:55:18;;;;;;;;;;;8.40;75.20;;;;;;5065625;28;20022;-83
2022/12/02 05:57:44;;;;;;;;;;;8.40;75.20;;;;;;5057616;28;19924;-84
2022/12/02 06:00:18;;;;;;;;;;;8.40;75.20;;;;;;5057093;28;19919;-84
2022/12/02 06:02:45;;;;;;;;;;;8.40;75.20;;;;;;5069173;28;20529;-85
2022/12/02 06:05:14;;;;;;;;;;;8.40;75.20;;;;;;5079493;28;19916;-82
2022/12/02 06:07:39;;;;;;;;;;;8.40;75.20;;;;;;5072262;28;19955;-81
2022/12/02 06:10:15;;;;;;;;;;;8.40;75.20;;;;;;5058334;28;19997;-81
2022/12/02 06:12:40;;;;;;;;;;;8.40;75.20;;;;;;5064411;28;19948;-83
2022/12/02 06:15:11;;;;;;;;;;;8.30;75.20;;;;;;5069917;28;20398;-82
2022/12/02 06:17:37;;;;;;;;;;;8.40;75.20;;;;;;5056463;28;19920;-82
2022/12/02 06:20:04;;;;;;;;;;;8.40;75.20;;;;;;5087403;28;20041;-86
2022/12/02 06:22:31;;;;;;;;;;;8.30;75.20;;;;;;5071545;28;19912;-81
2022/12/02 06:25:00;;;;;;;;;;;8.40;75.20;;;;;;5061992;28;20054;-81
2022/12/02 06:27:26;;;;;;;;;;;8.30;75.20;;;;;;5050693;28;19912;-84
2022/12/02 06:29:57;;;;;;;;;;;8.30;75.20;;;;;;5091998;28;21465;-91
2022/12/02 06:32:23;;;;;;;;;;;8.30;75.20;;;;;;5076468;28;19919;-82
2022/12/02 06:34:51;;;;;;;;;;;8.30;75.20;;;;;;5052899;28;20013;-82
2022/12/02 06:37:16;;;;;;;;;;;8.30;75.20;;;;;;5056514;28;19917;-81
2022/12/02 06:39:44;;;;;;;;;;;8.30;75.20;;;;;;5063801;28;19919;-82
2022/12/02 06:42:29;;;;;;;;;;;8.30;75.20;;;;;;5069085;28;19978;-82
2022/12/02 06:45:07;;;;;;;;;;;8.30;75.80;;;;;;5071699;28;19919;-83
2022/12/02 06:47:32;;;;;;;;;;;8.30;75.20;;;;;;5084894;28;20353;-84
2022/12/02 06:50:04;;;;;;;;;;;8.30;75.20;;;;;;5091966;28;19927;-83
2022/12/02 06:52:38;;;;;;;;;;;8.30;75.20;;;;;;5059613;28;19946;-81
2022/12/02 06:55:23;;;;;;;;;;;8.30;75.10;;;;;;5069495;28;19916;-83
2022/12/02 06:57:50;;;;;;;;;;;8.20;75.10;;;;;;5059869;28;19927;-82
2022/12/02 07:00:15;;;;;;;;;;;8.30;75.20;;;;;;5057927;28;20245;-83
2022/12/02 07:02:44;;;;;;;;;;;8.30;75.20;;;;;;5074216;28;19920;-83
2022/12/02 07:05:17;;;;;;;;;;;8.30;75.20;;;;;;5061422;28;20525;-83
2022/12/02 07:07:45;;;;;;;;;;;8.20;75.10;;;;;;5079307;28;19916;-83
2022/12/02 07:10:19;;;;;;;;;;;8.20;75.10;;;;;;5059832;28;19920;-83
2022/12/02 07:12:45;;;;;;;;;;;8.20;75.10;;;;;;5075276;28;20303;-83
2022/12/02 07:15:11;;;;;;;;;;;8.20;75.10;;;;;;5062173;28;19919;-83
2022/12/02 07:17:40;;;;;;;;;;;8.20;75.20;;;;;;5066947;28;20279;-84
2022/12/02 07:20:07;;;;;;;;;;;8.20;75.10;;;;;;5073356;28;19974;-82
2022/12/02 07:22:33;;;;;;;;;;;8.20;75.20;;;;;;5087662;28;19959;-82
2022/12/02 07:25:12;;;;;;;;;;;8.10;75.70;;;;;;5091619;28;19912;-81
2022/12/02 07:27:42;;;;;;;;;;;8.10;75.10;;;;;;5062929;28;19916;-85
2022/12/02 07:30:20;;;;;;;;;;;8.20;75.20;;;;;;5065120;28;20017;-84
2022/12/02 07:32:45;;;;;;;;;;;8.20;75.20;;;;;;5061985;28;19951;-82
2022/12/02 07:35:11;;;;;;;;;;;8.10;75.10;;;;;;5062267;28;19962;-84
2022/12/02 07:37:37;;;;;;;;;;;8.10;75.10;;;;;;5060329;28;20319;-82
2022/12/02 07:40:03;;;;;;;;;;;8.10;75.10;;;;;;5072009;28;19955;-83
2022/12/02 07:42:28;;;;;;;;;;;8.10;75.10;;;;;;5070976;28;19912;-83
2022/12/02 07:44:54;;;;;;;;;;;8.10;75.10;;;;;;5085233;28;19963;-83
2022/12/02 07:47:20;;;;;;;;;;;8.10;75.10;;;;;;5065733;28;20003;-84
2022/12/02 07:49:45;;;;;;;;;;;8.10;75.10;;;;;;5068460;28;20430;-83
2022/12/02 07:52:14;;;;;;;;;;;8.10;75.10;;;;;;5065091;28;20629;-84
2022/12/02 07:54:39;;;;;;;;;;;8.10;75.10;;;;;;5075100;28;20376;-83
2022/12/02 07:57:05;;;;;;;;;;;8.10;75.10;;;;;;5076739;28;19923;-83
2022/12/02 07:59:31;;;;;;;;;;;8.10;75.10;;;;;;5063964;28;20013;-84
2022/12/02 08:01:56;;;;;;;;;;;8.10;75.20;;;;;;5070386;28;19916;-82
2022/12/02 08:04:22;;;;;;;;;;;8.10;75.10;;;;;;5048468;28;19931;-87
2022/12/02 08:06:48;;;;;;;;;;;8.10;75.10;;;;;;5082975;28;19916;-83
2022/12/02 08:09:14;;;;;;;;;;;8.10;75.10;;;;;;5082445;28;19916;-84
2022/12/02 08:11:39;;;;;;;;;;;8.00;75.10;;;;;;5074461;28;19916;-81
2022/12/02 08:14:05;;;;;;;;;;;8.10;75.10;;;;;;5061538;28;19941;-83
2022/12/02 08:16:31;;;;;;;;;;;8.10;75.10;;;;;;5056549;28;20384;-83
2022/12/02 08:18:56;;;;;;;;;;;8.10;75.10;;;;;;5073394;28;19916;-84
2022/12/02 08:21:22;;;;;;;;;;;8.00;75.10;;;;;;5068786;28;20668;-84
2022/12/02 08:23:48;;;;;;;;;;;8.00;75.10;;;;;;5084766;28;20407;-83
2022/12/02 08:26:13;;;;;;;;;;;8.00;75.10;;;;;;5064623;28;20356;-86
2022/12/02 08:28:39;;;;;;;;;;;8.00;75.10;;;;;;5037121;28;19916;-88
2022/12/02 08:31:07;;;;;;;;;;;8.00;75.10;;;;;;5059324;28;19945;-84
2022/12/02 08:33:33;;;;;;;;;;;8.00;75.10;;;;;;5060721;28;20348;-87
2022/12/02 08:35:59;;;;;;;;;;;8.00;75.10;;;;;;5067896;28;19917;-85
2022/12/02 08:38:24;;;;;;;;;;;8.00;75.10;;;;;;5070763;28;19926;-86
2022/12/02 08:40:52;;;;;;;;;;;8.00;75.10;;;;;;5058355;28;19931;-88
2022/12/02 08:43:18;;;;;;;;;;;8.00;75.10;;;;;;5075671;28;19912;-83
2022/12/02 08:45:43;;;;;;;;;;;8.00;75.10;;;;;;5055354;28;19916;-84
2022/12/02 08:48:11;;;;;;;;;;;8.00;75.10;;;;;;5069277;28;20401;-84
2022/12/02 08:50:55;;;;;;;;;;;8.00;75.10;;;;;;5056563;28;20011;-85
2022/12/02 08:53:21;;;;;;;;;;;8.00;75.10;;;;;;5073148;28;19969;-84
2022/12/02 08:55:47;;;;;;;;;;;8.00;75.20;;;;;;5059226;28;20070;-83
2022/12/02 08:58:12;;;;;;;;;;;8.00;75.20;;;;;;5073239;28;20430;-81
2022/12/02 09:00:39;;;;;;;;;;;7.90;75.10;;;;;;5057524;28;19919;-82
2022/12/02 09:03:06;;;;;;;;;;;8.00;75.20;;;;;;5089388;28;20011;-84
2022/12/02 09:05:32;;;;;;;;;;;8.00;75.20;;;;;;5089043;28;19912;-86
2022/12/02 09:07:58;;;;;;;;;;;7.90;75.10;;;;;;5052033;28;20053;-83
2022/12/02 09:10:23;;;;;;;;;;;8.00;75.20;;;;;;5063270;28;20006;-83
2022/12/02 09:12:49;;;;;;;;;;;7.90;75.10;;;;;;5066629;28;19916;-82
2022/12/02 09:15:15;;;;;;;;;;;7.90;75.10;;;;;;5072402;28;19935;-83
2022/12/02 09:17:40;;;;;;;;;;;7.90;75.10;;;;;;5051994;28;19926;-84
2022/12/02 09:20:06;;;;;;;;;;;7.90;75.10;;;;;;5048457;28;19913;-86
2022/12/02 09:22:32;;;;;;;;;;;7.90;75.10;;;;;;5068527;28;19951;-86
2022/12/02 09:24:58;;;;;;;;;;;7.90;75.10;;;;;;5066487;28;20268;-82
2022/12/02 09:27:23;;;;;;;;;;;7.90;75.10;;;;;;5065670;28;20024;-86
2022/12/02 09:29:49;;;;;;;;;;;7.90;75.10;;;;;;5072705;28;19919;-84
2022/12/02 09:32:15;;;;;;;;;;;7.90;75.10;;;;;;5073125;28;20364;-84
2022/12/02 09:34:40;;;;;;;;;;;7.90;75.10;;;;;;5063104;28;19923;-83
2022/12/02 09:37:06;;;;;;;;;;;7.90;75.10;;;;;;5074907;28;19923;-86
2022/12/02 09:39:32;;;;;;;;;;;7.90;75.10;;;;;;5104758;28;19917;-85
2022/12/02 09:41:57;;;;;;;;;;;7.90;75.20;;;;;;5057304;28;20377;-87
2022/12/02 09:44:24;;;;;;;;;;;7.90;75.10;;;;;;5058750;28;19912;-80
2022/12/02 09:46:50;;;;;;;;;;;7.90;75.10;;;;;;5058446;28;19955;-86
2022/12/02 09:49:15;;;;;;;;;;;7.90;75.10;;;;;;5061048;28;19963;-85
2022/12/02 09:51:41;;;;;;;;;;;7.90;75.10;;;;;;5080519;28;20010;-88
2022/12/02 09:54:09;;;;;;;;;;;7.90;75.10;;;;;;5075576;28;20376;-86
2022/12/02 09:56:34;;;;;;;;;;;7.90;75.10;;;;;;5072596;28;19959;-85
2022/12/02 09:59:02;;;;;;;;;;;7.90;75.10;;;;;;5066250;28;19964;-84
2022/12/02 10:01:28;;;;;;;;;;;7.90;75.10;;;;;;5078433;28;19919;-81
2022/12/02 10:03:54;;;;;;;;;;;7.90;75.10;;;;;;5071881;28;19912;-84
2022/12/02 10:06:23;;;;;;;;;;;7.90;75.10;;;;;;5079906;28;19965;-84
2022/12/02 10:08:49;;;;;;;;;;;7.90;75.10;;;;;;5075545;28;20404;-83
2022/12/02 10:11:21;;;;;;;;;;;7.90;75.10;;;;;;5074726;28;19922;-85
2022/12/02 10:13:47;;;;;;;;;;;7.90;75.10;;;;;;5057090;28;19961;-84
2022/12/02 10:16:12;;;;;;;;;;;7.90;75.10;;;;;;5075554;28;19915;-87
2022/12/02 10:18:39;;;;;;;;;;;7.80;75.00;;;;;;5069184;28;19920;-83
2022/12/02 10:21:04;;;;;;;;;;;7.90;75.10;;;;;;5054668;28;19923;-83
2022/12/02 10:23:31;;;;;;;;;;;7.90;75.10;;;;;;5073106;28;20336;-88
2022/12/02 10:26:00;;;;;;;;;;;7.90;75.10;;;;;;5072571;28;19934;-82
2022/12/02 10:28:30;;;;;;;;;;;7.90;75.10;;;;;;5058579;28;19920;-85
2022/12/02 10:31:00;;;;;;;;;;;7.90;75.10;;;;;;5060916;28;19915;-83
2022/12/02 10:33:27;;;;;;;;;;;7.90;75.10;;;;;;5065866;28;19920;-84
2022/12/02 10:35:53;;;;;;;;;;;7.90;75.10;;;;;;5069615;28;19917;-85
2022/12/02 10:38:55;;;;;;;;;;;7.90;75.10;;;;;;5072383;28;19985;-84
2022/12/02 10:41:23;;;;;;;;;;;7.90;75.10;;;;;;4992486;28;20079;-85
2022/12/02 10:43:51;;;;;;;;;;;7.90;75.10;;;;;;5063121;28;19991;-84
2022/12/02 10:46:18;;;;;;;;;;;7.90;75.10;;;;;;5076004;28;20260;-85
2022/12/02 10:48:46;;;;;;;;;;;7.90;75.10;;;;;;5066181;28;21262;-85
2022/12/02 10:51:15;;;;;;;;;;;7.90;75.10;;;;;;5073622;28;20387;-83
2022/12/02 10:53:42;;;;;;;;;;;8.00;75.10;;;;;;5068767;28;19916;-81
2022/12/02 10:56:13;;;;;;;;;;;7.90;75.10;;;;;;5037992;28;19921;-85
2022/12/02 10:58:39;;;;;;;;;;;7.90;75.10;;;;;;5050846;28;19916;-84
2022/12/02 11:01:08;;;;;;;;;;;7.90;75.00;;;;;;5052276;28;19917;-86
2022/12/02 11:03:34;;;;;;;;;;;7.90;75.10;;;;;;5071892;28;20015;-85
2022/12/02 11:06:01;;;;;;;;;;;8.00;75.10;;;;;;5069974;28;20617;-84
2022/12/02 11:08:28;;;;;;;;;;;8.00;75.10;;;;;;5083129;28;19912;-85
2022/12/02 11:11:12;;;;;;;;;;;8.00;75.10;;;;;;5092048;28;19958;-86
2022/12/02 11:13:53;;;;;;;;;;;8.00;75.10;;;;;;5082148;28;19920;-83
2022/12/02 11:16:28;;;;;;;;;;;7.90;75.00;;;;;;5084995;28;19962;-87
2022/12/02 11:19:02;;;;;;;;;;;8.00;75.10;;;;;;5091889;28;20392;-85
2022/12/02 11:21:28;;;;;;;;;;;8.00;75.10;;;;;;5064583;28;19908;-84
2022/12/02 11:24:13;;;;;;;;;;;8.00;75.10;;;;;;5086359;28;20356;-86
2022/12/02 11:27:09;;;;;;;;;;;7.90;75.00;;;;;;5058590;28;19916;-85
2022/12/02 11:29:36;;;;;;;;;;;8.00;75.10;;;;;;5081374;28;20387;-85
2022/12/02 11:32:15;;;;;;;;;;;8.00;75.10;;;;;;5080727;28;19924;-88
2022/12/02 11:34:51;;;;;;;;;;;7.90;75.00;;;;;;5080238;28;19920;-85
2022/12/02 11:37:29;;;;;;;;;;;8.00;75.00;;;;;;5070821;28;20006;-84
2022/12/02 11:39:55;;;;;;;;;;;8.00;75.10;;;;;;5073806;28;19916;-84
2022/12/02 11:42:28;;;;;;;;;;;8.00;75.00;;;;;;5061689;28;20442;-86
2022/12/02 11:45:09;;;;;;;;;;;8.00;75.00;;;;;;5079816;28;19919;-84
2022/12/02 11:47:35;;;;;;;;;;;8.00;75.00;;;;;;5055700;28;20000;-83
2022/12/02 11:50:13;;;;;;;;;;;8.00;75.00;;;;;;5058702;28;19990;-83
2022/12/02 11:52:40;;;;;;;;;;;8.00;75.00;;;;;;5058881;28;20377;-84
2022/12/02 11:55:17;;;;;;;;;;;8.00;75.00;;;;;;5052520;28;20062;-89
2022/12/02 11:57:46;;;;;;;;;;;8.00;75.00;;;;;;5050694;28;19970;-84
2022/12/02 12:00:31;;;;;;;;;;;8.00;75.00;;;;;;5046680;28;20007;-84
2022/12/02 12:03:11;;;;;;;;;;;8.00;75.00;;;;;;5051020;28;19943;-83
2022/12/02 12:05:38;;;;;;;;;;;8.00;75.00;;;;;;5030770;28;20406;-84
2022/12/02 12:08:04;;;;;;;;;;;8.00;75.00;;;;;;5052968;28;19963;-84
2022/12/02 12:10:31;;;;;;;;;;;7.90;74.90;;;;;;5030939;28;19940;-85
2022/12/02 12:13:16;;;;;;;;;;;8.00;75.00;;;;;;5049615;28;19921;-84
2022/12/02 12:15:48;;;;;;;;;;;8.00;75.00;;;;;;5060376;28;19962;-88
2022/12/02 12:18:32;;;;;;;;;;;8.00;75.00;;;;;;5031892;28;19917;-84
2022/12/02 12:20:58;;;;;;;;;;;8.00;75.00;;;;;;5055275;28;19921;-83
2022/12/02 12:23:31;;;;;;;;;;;7.90;74.90;;;;;;5033317;28;19913;-85
2022/12/02 12:25:57;;;;;;;;;;;8.00;75.00;;;;;;5044946;28;19936;-84
2022/12/02 12:28:23;;;;;;;;;;;8.00;75.00;;;;;;5040163;28;19912;-85
2022/12/02 12:30:49;;;;;;;;;;;8.00;75.00;;;;;;5034332;28;19917;-83
2022/12/02 12:33:15;;;;;;;;;;;8.00;75.00;;;;;;5033918;28;20003;-84
2022/12/02 12:35:40;;;;;;;;;;;8.00;75.00;;;;;;5053705;28;20292;-84
2022/12/02 12:38:06;;;;;;;;;;;8.00;74.90;;;;;;5031487;28;19982;-87
2022/12/02 12:40:32;;;;;;;;;;;8.00;75.00;;;;;;5035709;28;20296;-83
2022/12/02 12:42:57;;;;;;;;;;;8.00;74.90;;;;;;5046850;28;19917;-85
2022/12/02 12:45:23;;;;;;;;;;;8.00;74.90;;;;;;5045854;28;19971;-85
2022/12/02 12:47:49;;;;;;;;;;;8.00;74.90;;;;;;5047922;28;19913;-84
2022/12/02 12:50:14;;;;;;;;;;;8.00;74.90;;;;;;5059802;28;19924;-84
2022/12/02 12:52:40;;;;;;;;;;;8.00;74.90;;;;;;5068748;28;20457;-84
2022/12/02 12:55:06;;;;;;;;;;;8.00;74.80;;;;;;5054759;28;19917;-84
2022/12/02 12:57:33;;;;;;;;;;;8.00;74.80;;;;;;5035629;28;19921;-85
2022/12/02 12:59:59;;;;;;;;;;;8.10;75.30;;;;;;5056332;28;19916;-84
2022/12/02 13:02:26;;;;;;;;;;;8.10;74.90;;;;;;5076139;28;19919;-86
2022/12/02 13:04:51;;;;;;;;;;;8.10;74.90;;;;;;5076585;28;19916;-85
2022/12/02 13:07:17;;;;;;;;;;;8.10;74.90;;;;;;5060302;28;20285;-86
2022/12/02 13:09:43;;;;;;;;;;;8.10;74.90;;;;;;5072974;28;19997;-85
2022/12/02 13:12:08;;;;;;;;;;;8.10;74.90;;;;;;5055115;28;19916;-84
2022/12/02 13:14:34;;;;;;;;;;;8.10;74.90;;;;;;5058491;28;19912;-86
2022/12/02 13:17:00;;;;;;;;;;;8.10;74.90;;;;;;5068029;28;20387;-84
2022/12/02 13:19:25;;;;;;;;;;;8.10;74.90;;;;;;5072266;28;19916;-84
2022/12/02 13:21:51;;;;;;;;;;;8.10;74.90;;;;;;5071242;28;19968;-85
2022/12/02 13:24:17;;;;;;;;;;;8.10;74.90;;;;;;5070888;28;19970;-86
2022/12/02 13:26:43;;;;;;;;;;;8.10;74.80;;;;;;5069930;28;19913;-84
2022/12/02 13:29:08;;;;;;;;;;;8.10;74.90;;;;;;5075606;28;20277;-86
2022/12/02 13:31:34;;;;;;;;;;;8.10;74.80;;;;;;5075144;28;19916;-84
2022/12/02 13:34:00;;;;;;;;;;;8.10;74.80;;;;;;5075123;28;19920;-85
2022/12/02 13:36:25;;;;;;;;;;;8.10;74.80;;;;;;5054480;28;19928;-84
2022/12/02 13:38:51;;;;;;;;;;;8.10;74.80;;;;;;5053508;28;20049;-85
2022/12/02 13:41:16;;;;;;;;;;;8.10;74.80;;;;;;5078053;28;19946;-84
2022/12/02 13:43:42;;;;;;;;;;;8.10;74.80;;;;;;5055667;28;19921;-84
2022/12/02 13:46:08;;;;;;;;;;;8.10;74.80;;;;;;5041313;28;19923;-82
2022/12/02 13:48:33;;;;;;;;;;;8.10;74.80;;;;;;5040574;28;19947;-82
2022/12/02 13:51:01;;;;;;;;;;;8.10;74.80;;;;;;5053090;28;19925;-83
2022/12/02 13:53:27;;;;;;;;;;;8.10;74.80;;;;;;5035414;28;19920;-84
2022/12/02 13:55:52;;;;;;;;;;;8.10;74.80;;;;;;5036798;28;19917;-83
2022/12/02 13:58:18;;;;;;;;;;;8.10;74.80;;;;;;5025800;28;20424;-84
2022/12/02 14:00:44;;;;;;;;;;;8.20;74.80;;;;;;5050260;28;20022;-84
2022/12/02 14:03:10;;;;;;;;;;;8.20;74.80;;;;;;5052266;28;19925;-84
2022/12/02 14:05:36;;;;;;;;;;;8.10;74.80;;;;;;5036296;28;20250;-85
2022/12/02 14:08:02;;;;;;;;;;;8.10;74.80;;;;;;5035565;28;19924;-82
2022/12/02 14:10:27;;;;;;;;;;;8.20;74.80;;;;;;5034679;28;19983;-82
2022/12/02 14:12:55;;;;;;;;;;;8.10;74.70;;;;;;5048648;28;19913;-83
2022/12/02 14:15:21;;;;;;;;;;;8.10;74.80;;;;;;5053574;28;19918;-84
2022/12/02 14:17:47;;;;;;;;;;;8.10;74.70;;;;;;5066448;28;19928;-83
2022/12/02 14:20:13;;;;;;;;;;;8.10;74.70;;;;;;5050289;28;19913;-86
2022/12/02 14:22:39;;;;;;;;;;;8.10;74.70;;;;;;5030266;28;19908;-85
2022/12/02 14:25:04;;;;;;;;;;;8.10;74.70;;;;;;5048994;28;20007;-84
2022/12/02 14:27:30;;;;;;;;;;;8.10;74.70;;;;;;5031062;28;19921;-83
2022/12/02 14:29:56;;;;;;;;;;;8.10;74.70;;;;;;5057615;28;19913;-83
2022/12/02 14:32:21;;;;;;;;;;;8.10;74.70;;;;;;5049873;28;19912;-83
2022/12/02 14:34:47;;;;;;;;;;;8.20;74.70;;;;;;5032385;28;20387;-84